Time;durP1;ratioP1;P1;durP2;ratioP2;P2;SDS_P1;SDS_P2;PMS_P1;PMS_P2;Temp;Humidity;BMP_temperature;BMP_pressure;BME280_temperature;BME280_humidity;BME280_pressure;Samples;Min_cycle;Max_cycle;Signal;HPM_P1;HPM_P2
2023/09/11 00:01:34;;;;;;;18.45;11.70;;;17.80;99.90;;;;;;5011051;28;20046;-71
2023/09/11 00:04:00;;;;;;;18.77;12.15;;;17.80;99.90;;;;;;5012209;28;20097;-73
2023/09/11 00:06:26;;;;;;;17.85;11.25;;;17.80;99.90;;;;;;5013116;28;20529;-71
2023/09/11 00:08:53;;;;;;;18.48;11.85;;;17.90;99.90;;;;;;5005984;28;20054;-71
2023/09/11 00:11:18;;;;;;;18.02;11.32;;;17.80;99.90;;;;;;4993280;28;20405;-71
2023/09/11 00:13:44;;;;;;;17.45;11.68;;;17.70;99.90;;;;;;4993213;28;20044;-71
2023/09/11 00:16:10;;;;;;;21.90;12.18;;;17.70;99.90;;;;;;4975840;28;20031;-71
2023/09/11 00:18:37;;;;;;;17.00;11.65;;;17.80;99.90;;;;;;4992970;28;20046;-71
2023/09/11 00:21:03;;;;;;;18.88;11.68;;;17.70;99.90;;;;;;4992660;28;20062;-71
2023/09/11 00:23:29;;;;;;;19.40;10.90;;;17.70;99.90;;;;;;4993197;28;20056;-71
2023/09/11 00:25:55;;;;;;;21.20;12.25;;;17.70;99.90;;;;;;4992920;28;20450;-72
2023/09/11 00:28:21;;;;;;;16.13;10.70;;;17.70;99.90;;;;;;4992821;28;20433;-71
2023/09/11 00:30:47;;;;;;;21.60;11.75;;;17.70;99.90;;;;;;4993012;28;20512;-72
2023/09/11 00:33:12;;;;;;;19.02;11.80;;;17.60;99.90;;;;;;4972106;28;20038;-71
2023/09/11 00:35:42;;;;;;;17.23;10.98;;;17.60;99.90;;;;;;4973876;28;20501;-71
2023/09/11 00:38:08;;;;;;;18.98;11.82;;;17.40;99.90;;;;;;4993012;28;20025;-72
2023/09/11 00:40:34;;;;;;;17.33;11.70;;;17.40;99.90;;;;;;4992701;28;20034;-71
2023/09/11 00:42:59;;;;;;;17.42;12.00;;;17.40;99.90;;;;;;4992538;28;20030;-71
2023/09/11 00:45:25;;;;;;;19.20;11.65;;;17.30;99.90;;;;;;4992561;28;20045;-71
2023/09/11 00:47:51;;;;;;;17.23;12.00;;;17.20;99.90;;;;;;4974877;28;20031;-71
2023/09/11 00:50:17;;;;;;;20.00;11.77;;;17.20;99.90;;;;;;4990210;28;20022;-71
2023/09/11 00:52:43;;;;;;;19.48;11.52;;;17.20;99.90;;;;;;4974790;28;20033;-71
2023/09/11 00:55:09;;;;;;;17.65;12.18;;;17.10;99.90;;;;;;4974894;28;20125;-70
2023/09/11 00:57:36;;;;;;;19.45;11.18;;;17.10;99.90;;;;;;4958547;28;20035;-72
2023/09/11 01:00:04;;;;;;;17.45;11.25;;;17.10;99.90;;;;;;4990460;28;20045;-71
2023/09/11 01:02:31;;;;;;;15.50;10.50;;;17.10;99.90;;;;;;4973469;28;20027;-73
2023/09/11 01:04:59;;;;;;;19.02;10.93;;;17.20;99.90;;;;;;4974834;28;20030;-71
2023/09/11 01:07:25;;;;;;;17.90;10.93;;;17.20;99.90;;;;;;4991915;28;20486;-72
2023/09/11 01:09:51;;;;;;;20.08;11.68;;;17.20;99.90;;;;;;4988481;28;20533;-71
2023/09/11 01:12:17;;;;;;;17.55;11.50;;;17.20;99.90;;;;;;4993158;28;20149;-71
2023/09/11 01:14:43;;;;;;;15.40;10.65;;;17.20;99.90;;;;;;4990928;28;20072;-71
2023/09/11 01:17:12;;;;;;;16.60;10.35;;;17.10;99.90;;;;;;4989905;28;20049;-71
2023/09/11 01:20:20;;;;;;;17.08;11.65;;;17.00;99.90;;;;;;5011414;28;20050;-71
2023/09/11 01:23:22;;;;;;;17.00;10.77;;;16.90;99.90;;;;;;4931683;29;20047;-71
2023/09/11 01:26:34;;;;;;;15.32;10.50;;;17.00;99.90;;;;;;4938912;29;20074;-71
2023/09/11 01:29:18;;;;;;;17.83;11.02;;;17.00;99.90;;;;;;4911318;29;20622;-71
2023/09/11 01:31:44;;;;;;;19.80;11.18;;;16.80;99.90;;;;;;4901018;29;20028;-71
2023/09/11 01:34:12;;;;;;;16.13;11.10;;;16.90;99.90;;;;;;4907373;29;20071;-71
2023/09/11 01:36:38;;;;;;;17.92;11.27;;;16.80;99.90;;;;;;4922358;29;20039;-70
2023/09/11 01:39:05;;;;;;;17.30;10.63;;;16.80;99.90;;;;;;4912314;29;20025;-70
2023/09/11 01:41:34;;;;;;;15.40;10.32;;;16.90;99.90;;;;;;4933232;29;20043;-72
2023/09/11 01:44:16;;;;;;;16.83;11.02;;;16.90;99.90;;;;;;4928916;29;20028;-71
2023/09/11 01:46:44;;;;;;;15.02;10.85;;;16.90;99.90;;;;;;4919253;29;20424;-70
2023/09/11 01:49:11;;;;;;;18.08;12.88;;;16.80;99.90;;;;;;4897978;29;20111;-70
2023/09/11 01:51:41;;;;;;;19.15;13.15;;;16.80;99.90;;;;;;4916828;29;20415;-70
2023/09/11 01:54:08;;;;;;;17.05;11.57;;;16.70;99.90;;;;;;4932834;29;20491;-72
2023/09/11 01:56:34;;;;;;;20.90;12.05;;;16.70;99.90;;;;;;4931466;29;20491;-71
2023/09/11 01:58:59;;;;;;;15.27;10.25;;;16.70;99.90;;;;;;4932744;28;20084;-71
2023/09/11 02:01:26;;;;;;;15.93;10.27;;;16.60;99.90;;;;;;4989300;28;20026;-72
2023/09/11 02:03:53;;;;;;;16.33;10.70;;;16.70;99.90;;;;;;4992857;28;20393;-74
2023/09/11 02:06:19;;;;;;;16.88;11.65;;;16.70;99.90;;;;;;5010969;28;20053;-71
2023/09/11 02:08:45;;;;;;;19.20;10.32;;;16.70;99.90;;;;;;5010423;28;20074;-71
2023/09/11 02:11:11;;;;;;;17.05;10.85;;;16.60;99.90;;;;;;4992718;28;20040;-71
2023/09/11 02:13:37;;;;;;;16.27;11.18;;;16.60;99.90;;;;;;4992505;28;20448;-70
2023/09/11 02:16:03;;;;;;;17.00;10.38;;;16.10;99.90;;;;;;4989442;28;20128;-71
2023/09/11 02:18:29;;;;;;;16.00;11.30;;;16.60;99.90;;;;;;5010930;28;20148;-71
2023/09/11 02:20:54;;;;;;;17.33;11.40;;;16.60;99.90;;;;;;5010613;28;20030;-72
2023/09/11 02:23:22;;;;;;;19.83;12.38;;;16.50;99.90;;;;;;5011944;28;20030;-71
2023/09/11 02:25:48;;;;;;;15.35;11.45;;;16.50;99.90;;;;;;4983883;28;20113;-71
2023/09/11 02:28:14;;;;;;;19.00;11.07;;;16.50;99.90;;;;;;5011668;28;20022;-71
2023/09/11 02:30:40;;;;;;;19.13;11.23;;;16.50;99.90;;;;;;5010459;28;20052;-72
2023/09/11 02:33:06;;;;;;;17.27;11.60;;;16.60;99.90;;;;;;5012063;28;20110;-74
2023/09/11 02:35:32;;;;;;;16.88;11.48;;;16.60;99.90;;;;;;4994090;28;20029;-72
2023/09/11 02:37:58;;;;;;;20.35;12.70;;;16.50;99.90;;;;;;4994679;28;20484;-72
2023/09/11 02:40:24;;;;;;;16.33;11.20;;;16.50;99.90;;;;;;5007164;28;20473;-72
2023/09/11 02:42:50;;;;;;;19.15;11.50;;;16.50;99.90;;;;;;4993335;28;20097;-72
2023/09/11 02:45:16;;;;;;;18.25;11.88;;;16.40;99.90;;;;;;4993642;28;20026;-73
2023/09/11 02:47:42;;;;;;;21.73;12.63;;;16.40;99.90;;;;;;5001431;28;20109;-71
2023/09/11 02:50:08;;;;;;;18.95;12.10;;;16.40;99.90;;;;;;5010535;28;20030;-71
2023/09/11 02:52:34;;;;;;;21.15;13.55;;;16.40;99.90;;;;;;4993927;28;20038;-73
2023/09/11 02:54:59;;;;;;;18.90;12.40;;;16.30;99.90;;;;;;5011407;28;20049;-72
2023/09/11 02:57:25;;;;;;;16.73;12.55;;;16.30;99.90;;;;;;5011457;28;20022;-73
2023/09/11 02:59:55;;;;;;;18.33;12.13;;;16.30;99.90;;;;;;5010101;28;20109;-70
2023/09/11 03:02:22;;;;;;;19.88;11.50;;;16.30;99.90;;;;;;4993822;28;20496;-71
2023/09/11 03:04:51;;;;;;;17.42;11.80;;;16.30;99.90;;;;;;4993618;28;20026;-71
2023/09/11 03:07:20;;;;;;;20.67;11.80;;;16.30;99.90;;;;;;4994248;28;20057;-72
2023/09/11 03:09:46;;;;;;;16.88;10.98;;;16.20;99.90;;;;;;5011026;28;20050;-71
2023/09/11 03:12:13;;;;;;;21.48;11.75;;;16.30;99.90;;;;;;4992088;28;20026;-70
2023/09/11 03:14:41;;;;;;;17.33;10.50;;;16.30;99.90;;;;;;4994003;28;20033;-72
2023/09/11 03:17:09;;;;;;;17.40;11.13;;;16.20;99.90;;;;;;4993771;28;20026;-70
2023/09/11 03:19:36;;;;;;;18.48;11.45;;;16.20;99.90;;;;;;5011112;28;20077;-74
2023/09/11 03:22:02;;;;;;;18.50;11.50;;;16.20;99.90;;;;;;4993894;28;20121;-71
2023/09/11 03:24:28;;;;;;;24.30;11.82;;;16.20;99.90;;;;;;4993723;28;20025;-71
2023/09/11 03:26:54;;;;;;;18.95;11.73;;;16.10;99.90;;;;;;4995638;28;20168;-72
2023/09/11 03:29:20;;;;;;;18.58;10.00;;;16.00;99.90;;;;;;4997439;28;20056;-73
2023/09/11 03:31:46;;;;;;;19.75;11.18;;;15.90;99.90;;;;;;5014661;28;20022;-71
2023/09/11 03:34:13;;;;;;;16.48;10.65;;;15.90;99.90;;;;;;4997425;28;20053;-71
2023/09/11 03:36:40;;;;;;;17.05;11.30;;;15.80;99.90;;;;;;4996848;28;20137;-72
2023/09/11 03:39:07;;;;;;;14.85;9.75;;;15.90;99.90;;;;;;4997577;28;20385;-72
2023/09/11 03:41:34;;;;;;;18.25;9.90;;;16.00;99.90;;;;;;4996903;28;20038;-73
2023/09/11 03:44:00;;;;;;;17.17;10.02;;;15.80;99.90;;;;;;4997456;28;20032;-72
2023/09/11 03:46:27;;;;;;;13.82;9.75;;;;;;;;;;4996774;28;20062;-72
2023/09/11 03:48:53;;;;;;;15.63;9.20;;;15.90;99.90;;;;;;5014476;28;20022;-72
2023/09/11 03:51:19;;;;;;;15.95;11.38;;;;;;;;;;4997182;28;20444;-71
2023/09/11 03:53:46;;;;;;;15.95;10.30;;;15.70;99.90;;;;;;4996978;28;20022;-72
2023/09/11 03:56:17;;;;;;;16.20;10.77;;;15.80;99.90;;;;;;4996336;28;20138;-72
2023/09/11 03:58:44;;;;;;;16.60;9.95;;;15.80;99.90;;;;;;4983840;28;20065;-72
2023/09/11 04:01:12;;;;;;;16.73;10.80;;;15.80;99.90;;;;;;4996532;28;20049;-71
2023/09/11 04:03:40;;;;;;;16.63;10.25;;;15.80;99.90;;;;;;5005768;28;20026;-72
2023/09/11 04:06:06;;;;;;;16.83;10.32;;;15.80;99.90;;;;;;5014260;28;20036;-72
2023/09/11 04:08:32;;;;;;;24.92;10.55;;;15.70;99.90;;;;;;5013830;28;20042;-73
2023/09/11 04:10:57;;;;;;;27.60;10.43;;;15.70;99.90;;;;;;4991927;28;20538;-71
2023/09/11 04:13:23;;;;;;;15.75;9.65;;;15.70;99.90;;;;;;5012580;28;20030;-72
2023/09/11 04:15:49;;;;;;;16.40;9.82;;;15.80;99.90;;;;;;5010833;28;20044;-71
2023/09/11 04:18:15;;;;;;;17.60;10.00;;;15.80;99.90;;;;;;4985112;28;20537;-71
2023/09/11 04:20:41;;;;;;;15.90;9.98;;;15.90;99.90;;;;;;5012352;28;20026;-72
2023/09/11 04:23:07;;;;;;;13.75;9.55;;;15.90;99.90;;;;;;5014043;28;20486;-71
2023/09/11 04:25:33;;;;;;;18.40;10.35;;;15.90;99.90;;;;;;4995143;28;20661;-73
2023/09/11 04:27:59;;;;;;;16.52;10.20;;;15.80;99.90;;;;;;4992672;28;20488;-72
2023/09/11 04:30:25;;;;;;;22.33;10.45;;;15.90;99.90;;;;;;4995596;28;20038;-74
2023/09/11 04:32:52;;;;;;;17.25;9.70;;;16.20;99.90;;;;;;4996709;28;20034;-73
2023/09/11 04:35:23;;;;;;;17.33;10.68;;;16.40;99.90;;;;;;5013422;28;20041;-73
2023/09/11 04:37:49;;;;;;;19.15;9.65;;;16.90;99.90;;;;;;4995307;28;20062;-73
2023/09/11 04:40:15;;;;;;;17.00;9.23;;;17.20;99.90;;;;;;5013125;28;20077;-76
2023/09/11 04:42:43;;;;;;;19.48;9.77;;;17.70;99.90;;;;;;4994104;28;20030;-73
2023/09/11 04:45:10;;;;;;;16.30;9.73;;;18.10;99.90;;;;;;4994750;28;20072;-74
2023/09/11 04:47:36;;;;;;;17.08;9.07;;;18.30;99.90;;;;;;4990483;28;20022;-73
2023/09/11 04:50:03;;;;;;;15.05;8.60;;;18.70;99.90;;;;;;5007953;28;20393;-74
2023/09/11 04:52:29;;;;;;;24.05;9.75;;;19.00;99.90;;;;;;4997727;28;20065;-73
2023/09/11 04:54:55;;;;;;;17.13;8.70;;;19.20;99.90;;;;;;4995710;28;20504;-73
2023/09/11 04:57:21;;;;;;;15.95;8.57;;;19.60;99.90;;;;;;5012987;28;20030;-74
2023/09/11 04:59:49;;;;;;;17.27;8.60;;;;;;;;;;4995772;28;20474;-74
2023/09/11 05:02:15;;;;;;;15.75;8.20;;;;;;;;;;4978892;28;20029;-74
2023/09/11 05:04:42;;;;;;;12.15;9.07;;;;;;;;;;4995351;28;20033;-73
2023/09/11 05:07:08;;;;;;;15.50;8.05;;;;;;;;;;4993690;28;20533;-74
2023/09/11 05:09:36;;;;;;;14.68;8.57;;;;;;;;;;5012904;28;20109;-74
2023/09/11 05:12:02;;;;;;;13.63;8.30;;;;;;;;;;4995427;28;20029;-74
2023/09/11 05:14:30;;;;;;;13.90;8.50;;;;;;;;;;4988980;28;20026;-73
2023/09/11 05:16:57;;;;;;;15.48;8.35;;;;;;;;;;4989501;28;20044;-73
2023/09/11 05:19:23;;;;;;;14.68;7.82;;;22.50;99.90;;;;;;4979114;28;20045;-74
2023/09/11 05:21:51;;;;;;;19.80;8.57;;;;;;;;;;4993474;28;20132;-73
2023/09/11 05:24:16;;;;;;;15.30;8.63;;;23.00;99.90;;;;;;4995019;28;20486;-73
2023/09/11 05:26:42;;;;;;;17.48;9.32;;;23.20;99.90;;;;;;5011094;28;20037;-74
2023/09/11 05:29:08;;;;;;;19.25;9.55;;;22.60;99.90;;;;;;5013145;28;20092;-74
2023/09/11 05:31:34;;;;;;;15.98;9.35;;;21.80;99.90;;;;;;4994706;28;20053;-74
2023/09/11 05:34:00;;;;;;;17.33;9.57;;;21.30;99.90;;;;;;5011616;28;20081;-74
2023/09/11 05:36:25;;;;;;;17.17;10.05;;;21.10;99.90;;;;;;5012892;28;20042;-74
2023/09/11 05:38:51;;;;;;;23.67;10.45;;;20.80;99.90;;;;;;5012537;28;20022;-73
2023/09/11 05:41:20;;;;;;;19.75;9.27;;;20.60;99.90;;;;;;5012749;28;20474;-74
2023/09/11 05:43:46;;;;;;;20.08;9.35;;;20.60;99.90;;;;;;5015516;28;20101;-74
2023/09/11 05:46:12;;;;;;;17.70;9.35;;;20.50;99.90;;;;;;5022751;28;20116;-74
2023/09/11 05:48:37;;;;;;;15.57;9.52;;;20.50;99.90;;;;;;5011338;28;20064;-73
2023/09/11 05:51:03;;;;;;;17.75;10.10;;;20.50;99.90;;;;;;5012715;28;20030;-73
2023/09/11 05:53:29;;;;;;;16.00;10.65;;;20.60;99.90;;;;;;5012017;28;20492;-76
2023/09/11 05:55:55;;;;;;;25.30;10.52;;;20.20;99.90;;;;;;5012405;28;20378;-75
2023/09/11 05:58:21;;;;;;;21.17;9.45;;;20.20;99.90;;;;;;5012148;28;20054;-73
2023/09/11 06:00:48;;;;;;;17.10;9.27;;;20.40;99.90;;;;;;5011944;28;20475;-75
2023/09/11 06:03:13;;;;;;;15.32;8.90;;;20.40;99.90;;;;;;5012110;28;20470;-73
2023/09/11 06:05:40;;;;;;;15.27;8.57;;;20.60;99.90;;;;;;5012645;28;20029;-73
2023/09/11 06:08:06;;;;;;;16.30;10.05;;;20.70;99.90;;;;;;5001645;28;20363;-76
2023/09/11 06:10:33;;;;;;;21.63;9.23;;;20.80;99.90;;;;;;5010742;28;20109;-73
2023/09/11 06:13:00;;;;;;;16.63;10.25;;;20.90;99.90;;;;;;5004178;28;20038;-73
2023/09/11 06:15:26;;;;;;;17.52;10.07;;;21.00;99.90;;;;;;5007477;28;20038;-72
2023/09/11 06:17:51;;;;;;;17.02;9.38;;;20.90;99.90;;;;;;5009042;28;20036;-72
2023/09/11 06:20:18;;;;;;;20.50;9.57;;;20.90;99.90;;;;;;5010480;28;20025;-72
2023/09/11 06:22:44;;;;;;;16.25;9.15;;;20.90;99.90;;;;;;5007020;28;20027;-72
2023/09/11 06:25:10;;;;;;;20.15;9.18;;;21.20;99.90;;;;;;5011283;28;20157;-71
2023/09/11 06:27:36;;;;;;;15.80;8.55;;;21.40;99.90;;;;;;5011929;28;20097;-72
2023/09/11 06:30:05;;;;;;;16.70;9.95;;;21.50;99.90;;;;;;5011840;28;20157;-72
2023/09/11 06:32:35;;;;;;;13.63;9.02;;;21.50;99.90;;;;;;5009000;28;20387;-72
2023/09/11 06:35:06;;;;;;;19.95;10.02;;;21.70;99.90;;;;;;5005419;28;20026;-73
2023/09/11 06:37:32;;;;;;;25.88;9.48;;;21.60;99.90;;;;;;5012062;28;20116;-72
2023/09/11 06:39:57;;;;;;;14.77;9.13;;;21.30;99.90;;;;;;5011917;28;20018;-72
2023/09/11 06:42:25;;;;;;;13.48;8.38;;;21.70;99.90;;;;;;5010100;28;20500;-72
2023/09/11 06:44:52;;;;;;;19.25;8.65;;;21.50;99.90;;;;;;4981219;28;20037;-73
2023/09/11 06:47:19;;;;;;;15.43;8.40;;;21.40;99.90;;;;;;4985778;28;20074;-72
2023/09/11 06:49:45;;;;;;;20.40;9.50;;;21.50;99.90;;;;;;4998667;28;20026;-71
2023/09/11 06:52:10;;;;;;;15.23;7.53;;;21.80;99.90;;;;;;5007689;28;20030;-71
2023/09/11 06:54:36;;;;;;;17.60;9.10;;;22.00;99.90;;;;;;5005059;28;20125;-72
2023/09/11 06:57:06;;;;;;;15.23;8.70;;;22.00;99.90;;;;;;5002014;28;20540;-75
2023/09/11 06:59:32;;;;;;;19.92;8.65;;;22.00;99.90;;;;;;5002759;28;20034;-74
2023/09/11 07:01:58;;;;;;;14.13;8.35;;;22.00;99.90;;;;;;4996119;28;20052;-73
2023/09/11 07:04:24;;;;;;;20.15;9.02;;;22.10;99.90;;;;;;5013840;28;20429;-73
2023/09/11 07:06:50;;;;;;;12.45;8.05;;;;;;;;;;5015770;28;20029;-71
2023/09/11 07:09:16;;;;;;;26.23;8.07;;;22.80;99.90;;;;;;5013909;28;20050;-71
2023/09/11 07:11:42;;;;;;;13.13;7.30;;;;;;;;;;5010474;28;20066;-71
2023/09/11 07:14:12;;;;;;;12.88;7.32;;;;;;;;;;5007524;28;20153;-72
2023/09/11 07:16:39;;;;;;;16.27;7.25;;;23.10;96.70;;;;;;5001958;28;20096;-72
2023/09/11 07:19:05;;;;;;;11.02;6.25;;;23.40;97.20;;;;;;5010151;28;20026;-71
2023/09/11 07:21:31;;;;;;;15.48;6.65;;;;;;;;;;5008766;28;20049;-71
2023/09/11 07:23:57;;;;;;;13.25;6.72;;;;;;;;;;4993766;28;20045;-72
2023/09/11 07:26:23;;;;;;;14.63;6.95;;;24.00;92.70;;;;;;5010104;28;20026;-72
2023/09/11 07:28:53;;;;;;;15.05;7.07;;;;;;;;;;4993185;28;20030;-73
2023/09/11 07:31:19;;;;;;;12.23;6.70;;;24.30;92.10;;;;;;5014151;28;20041;-73
2023/09/11 07:33:45;;;;;;;10.48;5.68;;;24.50;93.00;;;;;;5014918;28;20421;-72
2023/09/11 07:36:11;;;;;;;11.30;5.93;;;24.80;92.20;;;;;;5014343;28;20432;-72
2023/09/11 07:38:44;;;;;;;15.82;6.50;;;24.80;92.10;;;;;;5004372;28;20022;-72
2023/09/11 07:41:11;;;;;;;12.15;6.72;;;25.00;92.10;;;;;;5012920;28;20120;-71
2023/09/11 07:43:37;;;;;;;15.07;5.82;;;25.30;92.60;;;;;;5002707;28;20053;-72
2023/09/11 07:46:03;;;;;;;11.93;6.13;;;25.40;92.40;;;;;;5006533;28;20061;-72
2023/09/11 07:48:29;;;;;;;9.35;5.10;;;24.90;90.90;;;;;;5014221;28;20049;-72
2023/09/11 07:50:58;;;;;;;9.00;4.97;;;25.30;91.00;;;;;;4995200;28;20092;-70
2023/09/11 07:53:24;;;;;;;12.00;5.55;;;25.70;91.50;;;;;;5014261;28;20038;-71
2023/09/11 07:55:50;;;;;;;11.05;4.93;;;25.90;90.80;;;;;;5014229;28;20101;-71
2023/09/11 07:58:17;;;;;;;20.77;5.53;;;25.90;90.60;;;;;;5010337;28;20030;-72
2023/09/11 08:00:43;;;;;;;10.38;4.93;;;26.00;89.50;;;;;;5013261;28;20105;-72
2023/09/11 08:03:08;;;;;;;9.82;5.47;;;26.00;88.70;;;;;;5013080;28;20504;-71
2023/09/11 08:05:34;;;;;;;11.63;5.57;;;26.10;90.60;;;;;;5014354;28;20026;-71
2023/09/11 08:08:02;;;;;;;10.18;5.45;;;26.20;87.90;;;;;;5013821;28;20042;-72
2023/09/11 08:10:28;;;;;;;13.95;6.65;;;26.00;90.40;;;;;;5006585;28;20134;-71
2023/09/11 08:12:55;;;;;;;13.77;6.40;;;26.10;87.90;;;;;;5007378;28;20022;-73
2023/09/11 08:15:21;;;;;;;11.43;4.95;;;26.20;89.50;;;;;;5014031;28;20133;-72
2023/09/11 08:17:46;;;;;;;7.55;4.07;;;26.30;85.80;;;;;;4986793;28;20462;-72
2023/09/11 08:20:14;;;;;;;6.90;4.10;;;26.40;84.90;;;;;;5012735;28;20076;-71
2023/09/11 08:22:41;;;;;;;13.60;4.88;;;26.50;87.20;;;;;;5001317;28;20083;-71
2023/09/11 08:25:09;;;;;;;10.73;3.97;;;26.50;85.50;;;;;;5007596;28;20037;-75
2023/09/11 08:27:35;;;;;;;8.13;3.78;;;26.50;84.00;;;;;;5013787;28;20022;-71
2023/09/11 08:30:00;;;;;;;7.95;4.28;;;26.70;85.90;;;;;;5014210;28;20036;-72
2023/09/11 08:32:26;;;;;;;7.03;3.95;;;26.80;86.30;;;;;;5013523;28;20079;-71
2023/09/11 08:34:52;;;;;;;7.65;4.00;;;26.70;83.40;;;;;;5014269;28;20030;-72
2023/09/11 08:37:18;;;;;;;9.07;4.63;;;26.30;84.80;;;;;;5013406;28;20096;-71
2023/09/11 08:39:44;;;;;;;7.75;4.25;;;26.70;87.70;;;;;;5013720;28;20034;-71
2023/09/11 08:42:10;;;;;;;9.90;5.07;;;26.90;86.20;;;;;;5013164;28;20101;-72
2023/09/11 08:44:36;;;;;;;11.77;4.95;;;27.10;86.00;;;;;;5014046;28;20026;-71
2023/09/11 08:47:05;;;;;;;11.73;4.00;;;27.00;85.30;;;;;;5013263;28;20029;-71
2023/09/11 08:49:41;;;;;;;13.07;3.65;;;27.10;82.40;;;;;;5013980;28;20041;-71
2023/09/11 08:52:13;;;;;;;13.35;4.47;;;27.40;84.60;;;;;;5013143;28;20037;-71
2023/09/11 08:54:43;;;;;;;12.90;4.32;;;27.20;80.50;;;;;;5012234;28;20026;-72
2023/09/11 08:57:13;;;;;;;22.35;3.92;;;27.00;78.60;;;;;;5012981;28;20038;-71
2023/09/11 08:59:43;;;;;;;8.63;3.80;;;27.20;79.80;;;;;;5012767;28;20409;-72
2023/09/11 09:02:11;;;;;;;5.80;3.60;;;27.00;79.50;;;;;;5011380;28;20046;-71
2023/09/11 09:04:40;;;;;;;6.72;4.05;;;26.90;78.90;;;;;;5010180;28;20061;-71
2023/09/11 09:07:09;;;;;;;9.57;4.30;;;27.00;78.10;;;;;;5010759;28;20105;-75
2023/09/11 09:09:36;;;;;;;7.72;4.05;;;27.50;80.70;;;;;;5012660;28;20370;-75
2023/09/11 09:12:03;;;;;;;10.07;4.25;;;;;;;;;;5003861;28;20031;-71
2023/09/11 09:14:29;;;;;;;9.68;4.63;;;;;;;;;;5012948;28;20034;-71
2023/09/11 09:16:56;;;;;;;7.35;3.80;;;;;;;;;;5013163;28;20041;-72
2023/09/11 09:19:22;;;;;;;8.90;4.10;;;28.30;78.90;;;;;;5008676;28;20092;-71
2023/09/11 09:22:06;;;;;;;7.15;4.30;;;28.50;93.30;;;;;;5012673;28;20461;-71
2023/09/11 09:24:33;;;;;;;7.05;4.07;;;28.50;76.70;;;;;;5011985;28;20477;-71
2023/09/11 09:27:01;;;;;;;7.45;3.75;;;28.30;77.10;;;;;;5000356;28;20022;-72
2023/09/11 09:29:36;;;;;;;5.88;3.35;;;28.50;81.10;;;;;;5012747;28;20026;-71
2023/09/11 09:32:03;;;;;;;6.15;3.90;;;28.70;79.40;;;;;;5013291;28;20050;-71
2023/09/11 09:34:31;;;;;;;7.47;3.92;;;;;;;;;;5012370;28;20026;-71
2023/09/11 09:36:57;;;;;;;7.32;3.47;;;29.10;78.20;;;;;;5012726;28;20041;-71
2023/09/11 09:39:28;;;;;;;9.32;4.00;;;29.00;76.10;;;;;;4994983;28;20099;-71
2023/09/11 09:42:00;;;;;;;10.77;4.45;;;29.10;80.90;;;;;;5006661;28;20496;-71
2023/09/11 09:44:37;;;;;;;9.05;3.63;;;29.20;79.70;;;;;;5006931;28;20042;-72
2023/09/11 09:47:08;;;;;;;8.23;4.43;;;;;;;;;;5012514;28;20075;-71
2023/09/11 09:49:49;;;;;;;10.63;4.78;;;29.40;89.60;;;;;;5012433;28;20018;-72
2023/09/11 09:52:17;;;;;;;8.93;3.92;;;29.30;91.80;;;;;;5012206;28;20378;-71
2023/09/11 09:54:54;;;;;;;8.30;4.43;;;28.70;91.20;;;;;;5011641;28;20037;-72
2023/09/11 09:57:23;;;;;;;14.02;4.30;;;28.90;91.50;;;;;;5011690;28;20057;-72
2023/09/11 09:59:53;;;;;;;12.68;4.07;;;28.60;91.10;;;;;;4983914;28;20033;-71
2023/09/11 10:02:30;;;;;;;9.68;4.28;;;28.70;92.10;;;;;;5007817;28;20037;-72
2023/09/11 10:04:58;;;;;;;8.27;3.95;;;28.70;91.50;;;;;;5011690;28;20061;-72
2023/09/11 10:07:42;;;;;;;10.85;4.13;;;28.90;91.80;;;;;;5002034;28;20041;-73
2023/09/11 10:10:23;;;;;;;10.70;4.40;;;28.80;90.90;;;;;;5000704;28;20050;-74
2023/09/11 10:13:09;;;;;;;6.43;3.63;;;28.90;91.10;;;;;;5006853;28;20049;-71
2023/09/11 10:15:36;;;;;;;8.70;4.00;;;29.20;84.40;;;;;;5005200;28;20045;-72
2023/09/11 10:18:04;;;;;;;7.95;3.90;;;29.20;84.20;;;;;;5007826;28;20018;-73
2023/09/11 10:20:32;;;;;;;9.38;3.63;;;28.80;84.70;;;;;;5011034;28;20433;-72
2023/09/11 10:23:01;;;;;;;7.70;4.20;;;;;;;;;;5003763;28;20030;-72
2023/09/11 10:25:29;;;;;;;7.38;3.75;;;;;;;;;;5012330;28;20072;-72
2023/09/11 10:28:01;;;;;;;6.10;3.95;;;;;;;;;;5011969;28;20044;-72
2023/09/11 10:30:52;;;;;;;11.68;3.75;;;29.70;74.80;;;;;;5011961;28;20429;-72
2023/09/11 10:33:22;;;;;;;4.60;3.10;;;;;;;;;;5011484;28;20486;-73
2023/09/11 10:35:51;;;;;;;9.43;4.05;;;;;;;;;;4999770;28;20038;-73
2023/09/11 10:38:17;;;;;;;9.18;3.78;;;;;;;;;;5016091;28;20028;-71
2023/09/11 10:40:45;;;;;;;9.40;4.18;;;;;;;;;;5015765;28;20026;-72
2023/09/11 10:43:12;;;;;;;12.80;4.05;;;29.70;93.60;;;;;;5015655;28;20038;-72
2023/09/11 10:45:38;;;;;;;13.27;4.13;;;;;;;;;;5015967;28;20018;-71
2023/09/11 10:48:04;;;;;;;7.78;3.60;;;30.10;74.80;;;;;;5015610;28;20030;-72
2023/09/11 10:50:37;;;;;;;6.82;3.75;;;30.10;79.30;;;;;;5016155;28;20026;-71
2023/09/11 10:53:07;;;;;;;14.95;4.10;;;30.10;79.10;;;;;;5015776;28;20057;-71
2023/09/11 10:55:34;;;;;;;10.05;3.83;;;30.00;80.90;;;;;;5015802;28;20034;-70
2023/09/11 10:58:05;;;;;;;8.40;3.70;;;29.70;79.50;;;;;;5015608;28;20030;-72
2023/09/11 11:00:38;;;;;;;7.63;3.95;;;29.90;78.50;;;;;;5015552;28;20065;-72
2023/09/11 11:03:05;;;;;;;7.32;3.53;;;29.80;79.10;;;;;;5015528;28;20026;-71
2023/09/11 11:05:36;;;;;;;8.30;3.95;;;29.90;79.80;;;;;;5015413;28;20106;-72
2023/09/11 11:08:03;;;;;;;10.98;3.72;;;29.60;78.80;;;;;;5015642;28;20482;-71
2023/09/11 11:10:29;;;;;;;6.55;3.22;;;29.80;77.90;;;;;;4996060;28;20129;-72
2023/09/11 11:13:08;;;;;;;7.07;3.22;;;29.80;79.00;;;;;;4995858;28;20114;-72
2023/09/11 11:15:35;;;;;;;5.20;3.17;;;29.80;78.80;;;;;;4995884;28;20042;-72
2023/09/11 11:18:08;;;;;;;6.97;3.40;;;30.00;79.00;;;;;;4995622;28;20026;-72
2023/09/11 11:20:34;;;;;;;6.97;3.78;;;30.00;88.60;;;;;;4995996;28;20081;-72
2023/09/11 11:23:12;;;;;;;6.32;3.28;;;29.90;90.20;;;;;;4978341;28;20093;-72
2023/09/11 11:25:42;;;;;;;6.75;3.53;;;30.00;90.50;;;;;;4995379;28;20027;-72
2023/09/11 11:28:15;;;;;;;12.73;3.80;;;30.10;91.30;;;;;;4995559;28;20023;-72
2023/09/11 11:30:47;;;;;;;5.93;3.42;;;30.10;91.60;;;;;;4995360;28;20114;-72
2023/09/11 11:33:18;;;;;;;7.95;3.35;;;30.10;91.30;;;;;;4995700;28;20033;-72
2023/09/11 11:35:47;;;;;;;22.10;3.80;;;;;;;;;;4995263;28;20038;-73
2023/09/11 11:38:20;;;;;;;10.43;3.20;;;;;;;;;;4995075;28;20438;-72
2023/09/11 11:40:47;;;;;;;11.35;4.07;;;;;;;;;;4995517;28;20077;-72
2023/09/11 11:43:14;;;;;;;9.73;3.63;;;;;;;;;;4995087;28;20030;-73
2023/09/11 11:45:44;;;;;;;7.28;3.28;;;29.90;85.10;;;;;;4995719;28;20053;-73
2023/09/11 11:48:14;;;;;;;8.60;3.08;;;30.10;82.80;;;;;;4994579;28;20501;-72
2023/09/11 11:50:49;;;;;;;7.45;3.45;;;;;;;;;;4994883;28;20549;-72
2023/09/11 11:53:21;;;;;;;7.50;3.63;;;;;;;;;;4994795;28;20034;-72
2023/09/11 11:55:47;;;;;;;;;;;30.30;67.00;;;;;;4995225;28;20113;-72
2023/09/11 11:58:14;;;;;;;6.30;3.05;;;30.30;67.50;;;;;;4994964;28;19906;-72
2023/09/11 12:00:41;;;;;;;9.82;3.53;;;;;;;;;;4994766;28;20084;-74
2023/09/11 12:03:08;;;;;;;9.70;3.47;;;30.30;66.40;;;;;;4995015;28;20019;-72
2023/09/11 12:05:43;;;;;;;9.80;2.85;;;30.30;65.80;;;;;;4994730;28;20018;-71
2023/09/11 12:08:12;;;;;;;9.70;3.67;;;29.90;65.80;;;;;;4994998;28;20042;-72
2023/09/11 12:10:48;;;;;;;6.70;3.40;;;30.10;67.70;;;;;;5014541;28;20093;-72
2023/09/11 12:13:22;;;;;;;8.02;3.50;;;30.20;65.60;;;;;;5002429;28;20493;-73
2023/09/11 12:15:56;;;;;;;5.35;3.17;;;30.30;66.30;;;;;;5014315;28;20042;-74
2023/09/11 12:18:29;;;;;;;6.03;3.38;;;30.30;65.20;;;;;;5014162;28;20033;-73
2023/09/11 12:21:06;;;;;;;5.47;3.38;;;30.30;65.60;;;;;;5014074;28;20408;-72
2023/09/11 12:23:33;;;;;;;7.32;3.25;;;;;;;;;;5014326;28;20038;-72
2023/09/11 12:26:01;;;;;;;6.22;4.15;;;30.50;65.10;;;;;;5014331;28;20057;-72
2023/09/11 12:28:27;;;;;;;9.90;3.65;;;30.40;66.70;;;;;;5014009;28;20029;-72
2023/09/11 12:30:54;;;;;;;9.52;3.72;;;30.60;69.80;;;;;;5013675;28;20033;-72
2023/09/11 12:33:28;;;;;;;6.03;3.92;;;30.50;63.80;;;;;;5013803;28;20374;-72
2023/09/11 12:35:56;;;;;;;8.00;3.60;;;30.50;64.70;;;;;;5001720;28;20108;-72
2023/09/11 12:38:23;;;;;;;5.97;3.30;;;30.50;65.30;;;;;;5013789;28;20022;-72
2023/09/11 12:40:50;;;;;;;6.40;3.05;;;30.50;64.90;;;;;;5013951;28;20052;-71
2023/09/11 12:43:17;;;;;;;4.93;3.03;;;30.40;65.00;;;;;;5013206;28;20030;-71
2023/09/11 12:45:44;;;;;;;7.47;3.45;;;30.40;65.30;;;;;;5013761;28;20034;-72
2023/09/11 12:48:10;;;;;;;7.22;3.20;;;30.40;64.60;;;;;;5013187;28;20030;-72
2023/09/11 12:50:39;;;;;;;6.95;2.83;;;30.40;64.10;;;;;;5013904;28;20049;-72
2023/09/11 12:53:05;;;;;;;12.13;2.97;;;30.40;63.90;;;;;;5012494;28;20105;-72